LVBRE SAZM-SABE
Flight info
| Callsign | LVBRE |
|---|---|
| Flight time | N/A |
| Altitude | 33000 |
| Route | PULPA1G PULPA UW31 TENIL TENIL8R |
| Aircraft | C25C/M-SDE2E3FGHRWXY/LB1 |
Departure
| Time | 2026-04-26 19:34 |
|---|---|
| Airport | Ástor Piazzola International Airport (SAZM) |
Arrival
| Time | N/A |
|---|---|
| Airport | Aeroparque Jorge Newbery (SABE) |
| Time | Latitude | Longitude | Altitude | Speed | Heading |
|---|---|---|---|---|---|
| 2026-04-26 19:19 | -37.93486 | -57.58049 | 41 ft | 0 kts | 8° |
| 2026-04-26 19:28 | -37.93460 | -57.58047 | 41 ft | 4 kts | 7° |
| 2026-04-26 19:28 | -37.93428 | -57.58026 | 41 ft | 6 kts | 36° |
| 2026-04-26 19:29 | -37.93398 | -57.57994 | 41 ft | 5 kts | 43° |
| 2026-04-26 19:29 | -37.93392 | -57.57953 | 41 ft | 7 kts | 107° |
| 2026-04-26 19:29 | -37.93417 | -57.57888 | 41 ft | 9 kts | 118° |
| 2026-04-26 19:29 | -37.93447 | -57.57818 | 41 ft | 9 kts | 119° |
| 2026-04-26 19:30 | -37.93480 | -57.57744 | 41 ft | 10 kts | 120° |
| 2026-04-26 19:30 | -37.93516 | -57.57671 | 41 ft | 10 kts | 119° |
| 2026-04-26 19:30 | -37.93551 | -57.57594 | 41 ft | 10 kts | 120° |
| 2026-04-26 19:30 | -37.93576 | -57.57540 | 41 ft | 11 kts | 120° |
| 2026-04-26 19:31 | -37.93622 | -57.57429 | 41 ft | 11 kts | 118° |
| 2026-04-26 19:31 | -37.93661 | -57.57340 | 41 ft | 14 kts | 120° |
| 2026-04-26 19:31 | -37.93717 | -57.57216 | 41 ft | 16 kts | 120° |
| 2026-04-26 19:31 | -37.93775 | -57.57091 | 41 ft | 16 kts | 120° |
| 2026-04-26 19:32 | -37.93829 | -57.56966 | 41 ft | 16 kts | 118° |
| 2026-04-26 19:32 | -37.93883 | -57.56839 | 41 ft | 16 kts | 118° |
| 2026-04-26 19:32 | -37.93939 | -57.56713 | 41 ft | 16 kts | 119° |
| 2026-04-26 19:32 | -37.93994 | -57.56586 | 41 ft | 17 kts | 119° |
| 2026-04-26 19:33 | -37.94030 | -57.56453 | 41 ft | 16 kts | 76° |
| 2026-04-26 19:33 | -37.94008 | -57.56396 | 40 ft | 16 kts | 60° |
| 2026-04-26 19:33 | -37.93913 | -57.56347 | 38 ft | 30 kts | 304° |
| 2026-04-26 19:33 | -37.93647 | -57.56890 | 50 ft | 115 kts | 300° |
| 2026-04-26 19:34 | -37.93058 | -57.58019 | 71 ft | 193 kts | 301° |
| 2026-04-26 19:34 | -37.92268 | -57.59402 | 1705 ft | 182 kts | 298° |
| 2026-04-26 19:34 | -37.91785 | -57.60264 | 2785 ft | 187 kts | 298° |
| 2026-04-26 19:34 | -37.90588 | -57.61217 | 3786 ft | 230 kts | 335° |
| 2026-04-26 19:35 | -37.88889 | -57.61027 | 4987 ft | 253 kts | 4° |
| 2026-04-26 19:35 | -37.87144 | -57.60431 | 5882 ft | 271 kts | 6° |
| 2026-04-26 19:35 | -37.85342 | -57.60046 | 7138 ft | 258 kts | 354° |
| 2026-04-26 19:35 | -37.83565 | -57.60176 | 8252 ft | 254 kts | 343° |
| 2026-04-26 19:36 | -37.81811 | -57.60477 | 9466 ft | 257 kts | 346° |
| 2026-04-26 19:36 | -37.80614 | -57.60591 | 10134 ft | 261 kts | 348° |
| 2026-04-26 19:36 | -37.78158 | -57.60805 | 11520 ft | 267 kts | 349° |
| 2026-04-26 19:36 | -37.76288 | -57.60969 | 12592 ft | 271 kts | 348° |
| 2026-04-26 19:37 | -37.74388 | -57.61153 | 13582 ft | 276 kts | 350° |
| 2026-04-26 19:37 | -37.72479 | -57.61330 | 14483 ft | 281 kts | 349° |
| 2026-04-26 19:37 | -37.70509 | -57.61515 | 15330 ft | 287 kts | 350° |
| 2026-04-26 19:37 | -37.68496 | -57.61703 | 16186 ft | 291 kts | 350° |
| 2026-04-26 19:38 | -37.66449 | -57.61894 | 17030 ft | 300 kts | 350° |
| 2026-04-26 19:38 | -37.64282 | -57.62106 | 17341 ft | 326 kts | 351° |
| 2026-04-26 19:38 | -37.61936 | -57.62316 | 17883 ft | 341 kts | 351° |
| 2026-04-26 19:38 | -37.59555 | -57.62539 | 18731 ft | 344 kts | 352° |
| 2026-04-26 19:39 | -37.57157 | -57.62756 | 19594 ft | 348 kts | 352° |
| 2026-04-26 19:39 | -37.54719 | -57.62990 | 20381 ft | 355 kts | 352° |
| 2026-04-26 19:39 | -37.52245 | -57.63214 | 21275 ft | 359 kts | 352° |
| 2026-04-26 19:39 | -37.49727 | -57.63453 | 22081 ft | 365 kts | 352° |
| 2026-04-26 19:40 | -37.47179 | -57.63682 | 22916 ft | 369 kts | 352° |
| 2026-04-26 19:40 | -37.44622 | -57.63926 | 23569 ft | 374 kts | 353° |
| 2026-04-26 19:40 | -37.41998 | -57.63899 | 24225 ft | 379 kts | 0° |
| 2026-04-26 19:40 | -37.39345 | -57.63445 | 24651 ft | 392 kts | 8° |
| 2026-04-26 19:41 | -37.36645 | -57.62491 | 24674 ft | 413 kts | 13° |
| 2026-04-26 19:41 | -37.33773 | -57.62296 | 24675 ft | 420 kts | 346° |
| 2026-04-26 19:41 | -37.30937 | -57.63331 | 24690 ft | 430 kts | 341° |
| 2026-04-26 19:41 | -37.28969 | -57.63819 | 24693 ft | 441 kts | 347° |
| 2026-04-26 19:42 | -37.24874 | -57.64553 | 24707 ft | 455 kts | 349° |
| 2026-04-26 19:42 | -37.21749 | -57.65034 | 24705 ft | 445 kts | 350° |
| 2026-04-26 19:42 | -37.18685 | -57.65491 | 24709 ft | 443 kts | 349° |
| 2026-04-26 19:42 | -37.15616 | -57.65928 | 24712 ft | 443 kts | 350° |
| 2026-04-26 19:43 | -37.12563 | -57.66366 | 24723 ft | 442 kts | 350° |
| 2026-04-26 19:43 | -37.09507 | -57.66798 | 24723 ft | 442 kts | 350° |
| 2026-04-26 19:43 | -37.06453 | -57.67236 | 24723 ft | 441 kts | 350° |
| 2026-04-26 19:43 | -37.03408 | -57.67668 | 24727 ft | 440 kts | 350° |
| 2026-04-26 19:44 | -37.00359 | -57.68101 | 24725 ft | 440 kts | 350° |
| 2026-04-26 19:44 | -36.97317 | -57.68537 | 24725 ft | 440 kts | 350° |
| 2026-04-26 19:44 | -36.94270 | -57.68973 | 24737 ft | 440 kts | 350° |
| 2026-04-26 19:44 | -36.91235 | -57.69416 | 24737 ft | 439 kts | 350° |
| 2026-04-26 19:45 | -36.88196 | -57.69867 | 24750 ft | 439 kts | 350° |
| 2026-04-26 19:45 | -36.85160 | -57.70308 | 24750 ft | 439 kts | 349° |